PGRO/ROP METAR and TAF weather

Enter ICAO airport designator
Station Type Date Time Source
PGRO METAR 2019/06/17 06:50 UTC NOAA

PGRO 170650Z 08014KT 7SM SCT013 SCT100 29/23 A2985 RMK WIND DATA ESTIMATED


Station Type Date Time Source
PGRO Decoded METAR 2019/06/17 06:50 UTC NOAA

Rota Island, N. Mariana Is, Rota International Airport, GU, United States (PGRO) 14-11N 145-15E
Jun 17, 2019 - 02:50 AM EDT / 2019.06.17 0650 UTC
Wind: from the E (080 degrees) at 16 MPH (14 KT):0
Visibility: 7 mile(s):0
Sky conditions: partly cloudy
Temperature: 84 F (29 C)
Dew Point: 73 F (23 C)
Relative Humidity: 70%
Pressure (altimeter): 29.85 in. Hg (1010 hPa)
ob: PGRO 170650Z 08014KT 7SM SCT013 SCT100 29/23 A2985 RMK WIND DATA ESTIMATED
cycle: 7

Station Type Date Time Source
PGRO TAF 2019/06/17 06:22 UTC NOAA

TAF PGRO 170520Z 1706/1806 09014KT P6SM VCSH SCT014 SCT120

Example: see airport list